M I D A S
Marine Information and Data Acquisition System
Tripno 185 of the Zeeleeuw from 2001-12-14 07:15:00 to 2001-12-14 18:30:00
Back to CruiseResearch ActivitiesStationsMapUnderway DataData graphs

EquipmentUnitsComments
TimeDGPSUTC
LatitudeDGPSDM.mWGS84
LongitudeDGPSDM.mWGS84
SpeedMeteo Stationm/sRelative wind speed
DirectionMeteo StationdegRelative wind direction
TemperatureMeteo Stationdeg CelciusAir temperature
PressureMeteo StationPaAtmospheric pressure
HumidityMeteo Station%Relative humidity
Missing or incorrect values are displayed as -999
Metereological data collected by the RV Zeeleeuw from 2001-12-14 07:15:00 to 2001-12-14 18:30:00
Time Latitude Longitude Speed Direction Temperature Pressure Humidity
2001-12-14 07:21 51°13.687 2°55.905 2.2 198 -3.3 103960 69
2001-12-14 07:22 51°13.688 2°55.906 3.2 165 -3.3 103960 69
2001-12-14 07:23 51°13.688 2°55.905 2.4 166 -3.3 103960 70
2001-12-14 07:24 51°13.688 2°55.905 2 169 -3.3 103960 70
2001-12-14 07:25 51°13.688 2°55.905 3.1 165 -3.3 103960 70
2001-12-14 07:26 51°13.689 2°55.905 2.8 170 -3.3 103960 70
2001-12-14 07:27 51°13.689 2°55.905 3.5 209 -3.3 103950 71
2001-12-14 07:28 51°13.689 2°55.905 5 173 -3.3 103960 71
2001-12-14 07:29 51°13.689 2°55.905 3.7 205 -3.3 103960 71
2001-12-14 07:30 51°13.689 2°55.905 5.1 170 -3.3 103960 72
2001-12-14 07:31 51°13.689 2°55.904 2.6 210 -3.3 103960 72
2001-12-14 07:32 51°13.689 2°55.904 1.8 220 -3.3 103960 72
2001-12-14 07:36 51°13.689 2°55.905 1.8 173 -3.3 103960 73
2001-12-14 07:37 51°13.689 2°55.905 1.9 191 -3.4 103960 73
2001-12-14 07:38 51°13.689 2°55.905 2 186 -3.4 103960 73
2001-12-14 07:39 51°13.689 2°55.905 5 185 -3.4 103960 73
2001-12-14 07:40 51°13.689 2°55.905 2 192 -3.4 103960 73
2001-12-14 07:41 51°13.689 2°55.905 1 181 -3.4 103970 73
2001-12-14 07:42 51°13.689 2°55.905 3.9 151 -3.4 103960 74
2001-12-14 07:43 51°13.689 2°55.904 2.5 184 -3.4 103960 74
2001-12-14 07:44 51°13.688 2°55.905 3.6 193 -3.4 103960 75
2001-12-14 07:45 51°13.689 2°55.905 2.7 165 -3.4 103960 75
2001-12-14 07:46 51°13.689 2°55.905 3 195 -3.4 103960 75
2001-12-14 07:47 51°13.689 2°55.904 3.3 155 -3.4 103960 75
2001-12-14 07:48 51°13.689 2°55.904 4.1 171 -3.4 103960 75
2001-12-14 07:49 51°13.689 2°55.905 4.8 168 -3.4 103960 75
2001-12-14 07:50 51°13.689 2°55.905 4.4 203 -3.4 103960 75
2001-12-14 07:51 51°13.689 2°55.905 4.2 173 -3.4 103960 75
2001-12-14 07:52 51°13.689 2°55.906 4.5 172 -3.4 103960 75
2001-12-14 07:53 51°13.689 2°55.906 4.1 144 -3.4 103960 76
2001-12-14 07:54 51°13.688 2°55.905 2.5 191 -3.4 103970 76
2001-12-14 07:55 51°13.689 2°55.906 5 158 -3.4 103960 76
2001-12-14 07:56 51°13.689 2°55.905 4 161 -3.4 103960 76
2001-12-14 07:57 51°13.687 2°55.905 4.9 167 -3.4 103960 75
2001-12-14 07:58 51°13.687 2°55.904 1.8 210 -3.3 103960 76
2001-12-14 07:59 51°13.694 2°55.853 2.3 128 -3.3 103960 76
2001-12-14 08:00 51°13.696 2°55.778 4.1 119 -3.3 103960 76
2001-12-14 08:01 51°13.706 2°55.755 4.7 107 -3.3 103960 76
2001-12-14 08:02 51°13.775 2°55.68 3.4 53 -3.3 103970 76
2001-12-14 08:03 51°13.849 2°55.605 3 53 -3.3 103970 76
2001-12-14 08:04 51°13.93 2°55.548 3.9 72 -3.3 103970 76
2001-12-14 08:05 51°14.016 2°55.492 3.3 55 -3.3 103960 76
2001-12-14 08:06 51°14.11 2°55.427 3.5 76 -3.3 103960 78
2001-12-14 08:07 51°14.211 2°55.329 4.9 68 -3.3 103950 77
2001-12-14 08:08 51°14.295 2°55.189 3.9 49 -3.4 103960 77
2001-12-14 08:09 51°14.372 2°55.001 3.2 36 -3.4 103950 78
2001-12-14 08:10 51°14.382 2°54.712 2.2 198 -3.3 103950 78
2001-12-14 08:11 51°14.291 2°54.382 3 159 -3.3 103950 78
2001-12-14 08:12 51°14.174 2°54.06 2.6 206 -3.2 103940 79
2001-12-14 08:13 51°14.061 2°53.731 2.1 187 -3.1 103950 79
2001-12-14 08:14 51°13.944 2°53.398 2.5 211 -3 103940 79
2001-12-14 08:15 51°13.825 2°53.063 1.9 236 -3 103940 79
2001-12-14 08:16 51°13.705 2°52.724 4.1 193 -3 103940 78
2001-12-14 08:17 51°13.584 2°52.383 3 202 -2.9 103960 79
2001-12-14 08:18 51°13.463 2°52.038 2.6 191 -2.8 103960 78
2001-12-14 08:19 51°13.341 2°51.691 2.4 182 -2.9 103960 77
2001-12-14 08:20 51°13.218 2°51.344 2.5 204 -2.8 103960 78
2001-12-14 08:21 51°13.095 2°50.993 1.8 182 -2.8 103960 76
2001-12-14 08:22 51°12.972 2°50.647 1.7 252 -2.8 103960 76
2001-12-14 08:23 51°12.85 2°50.298 1.5 144 -2.7 103960 77
2001-12-14 08:24 51°12.73 2°49.955 0.6 276 -2.6 103950 77
2001-12-14 08:25 51°12.607 2°49.596 0.8 269 -2.6 103960 75
2001-12-14 08:26 51°12.489 2°49.232 2.6 198 -2.6 103950 76
2001-12-14 08:27 51°12.39 2°48.863 1.5 229 -2.5 103950 75
2001-12-14 08:28 51°12.289 2°48.498 2.8 253 -2.4 103940 75
2001-12-14 08:29 51°12.185 2°48.12 0.8 259 -2.4 103940 74
2001-12-14 08:30 51°12.088 2°47.761 2.5 260 -2.4 103950 75
2001-12-14 08:31 51°12.003 2°47.393 0.8 237 -2.3 103950 76
2001-12-14 08:32 51°11.921 2°47.018 1.5 277 -2.3 103950 74
2001-12-14 08:33 51°11.848 2°46.631 1.6 282 -2.3 103950 72
2001-12-14 08:34 51°11.772 2°46.256 2.2 276 -2.3 103950 71
2001-12-14 08:35 51°11.696 2°45.874 1 230 -2.2 103950 73
2001-12-14 08:36 51°11.622 2°45.489 2.3 280 -2 103940 75
2001-12-14 08:37 51°11.555 2°45.115 1.7 287 -2.1 103950 72
2001-12-14 08:38 51°11.488 2°44.744 2.7 301 -1.9 103950 76
2001-12-14 08:39 51°11.421 2°44.361 1.4 282 -1.9 103960 76
2001-12-14 08:40 51°11.356 2°43.986 2.7 289 -1.8 103960 76
2001-12-14 08:41 51°11.291 2°43.613 2.8 292 -1.7 103960 75
2001-12-14 08:42 51°11.225 2°43.239 1.7 256 -1.6 103970 74
2001-12-14 08:43 51°11.164 2°42.868 2.5 345 -1.6 103960 71
2001-12-14 08:44 51°11.112 2°42.492 2.3 303 -1.6 103960 70
2001-12-14 08:45 51°11.077 2°42.249 5.3 303 -1.6 103970 71
2001-12-14 08:46 51°11.07 2°42.1 7.1 348 -1.5 103950 66
2001-12-14 08:47 51°11.078 2°42.001 8 14 -1.4 103940 75
2001-12-14 08:48 51°11.131 2°41.927 9.3 64 -1.3 103940 76
2001-12-14 08:49 51°11.132 2°41.895 10.3 76 -1.5 103940 69
2001-12-14 08:50 51°11.166 2°41.931 12.7 132 -1.5 103950 68
2001-12-14 08:51 51°11.16 2°41.962 10 155 -1.5 103950 70
2001-12-14 08:52 51°11.144 2°41.97 9.2 155 -1.5 103950 69
2001-12-14 08:53 51°11.128 2°41.968 9.9 150 -1.4 103950 72
2001-12-14 08:54 51°11.112 2°41.956 11.2 157 -1.3 103950 70
2001-12-14 08:55 51°11.095 2°41.935 10.8 162 -1.4 103950 71
2001-12-14 08:56 51°11.076 2°41.916 11 173 -1.5 103940 67
2001-12-14 08:57 51°11.056 2°41.919 12.1 154 -1.5 103950 68
2001-12-14 08:58 51°11.043 2°41.917 9.8 143 -1.4 103950 68
2001-12-14 08:59 51°11.023 2°41.945 10.4 195 -1.3 103950 70
2001-12-14 09:00 51°10.949 2°41.911 7.2 293 -1.2 103950 66
2001-12-14 09:01 51°10.883 2°41.64 3.6 283 -1.1 103960 67
2001-12-14 09:02 51°10.801 2°41.282 5.4 285 -1.2 103960 64
2001-12-14 09:03 51°10.727 2°40.924 4.5 294 -1.2 103960 61
2001-12-14 09:04 51°10.654 2°40.556 5.8 290 -1.2 103960 66
2001-12-14 09:05 51°10.579 2°40.196 4.2 279 -1.2 103970 60
2001-12-14 09:06 51°10.517 2°39.828 2.6 318 -1.1 103960 59
2001-12-14 09:07 51°10.464 2°39.462 3.4 342 -1 103960 61
2001-12-14 09:08 51°10.41 2°39.094 3.9 294 -0.8 103960 67
2001-12-14 09:09 51°10.351 2°38.724 3.8 300 -0.8 103960 60
2001-12-14 09:10 51°10.307 2°38.34 4.2 326 -0.8 103960 58
2001-12-14 09:11 51°10.299 2°37.958 1.8 342 -0.9 103950 59
2001-12-14 09:12 51°10.297 2°37.569 4.2 339 -0.9 103960 63
2001-12-14 09:13 51°10.311 2°37.195 4.2 341 -1 103960 63
2001-12-14 09:14 51°10.419 2°36.89 9.2 56 -0.8 103950 68
2001-12-14 09:15 51°10.6 2°36.723 9.6 83 -0.8 103940 64
2001-12-14 09:16 51°10.806 2°36.632 12.8 87 -0.9 103920 68
2001-12-14 09:17 51°11.001 2°36.709 13.3 102 -0.9 103910 69
2001-12-14 09:18 51°11.192 2°36.835 15.2 100 -0.9 103900 63
2001-12-14 09:19 51°11.381 2°36.961 14.2 100 -1 103910 64
2001-12-14 09:20 51°11.572 2°37.095 12.9 101 -0.8 103920 71
2001-12-14 09:21 51°11.763 2°37.225 15.5 105 -0.8 103910 68
2001-12-14 09:22 51°11.953 2°37.356 14.4 104 -0.8 103890 66
2001-12-14 09:23 51°12.144 2°37.488 14.4 91 -0.8 103910 64
2001-12-14 09:24 51°12.336 2°37.621 15.3 103 -0.8 103910 69
2001-12-14 09:25 51°12.529 2°37.756 14.7 103 -0.9 103910 68
2001-12-14 09:26 51°12.717 2°37.888 15.7 109 -0.7 103910 70
2001-12-14 09:27 51°12.908 2°38.021 15.2 105 -0.9 103910 65
2001-12-14 09:28 51°13.098 2°38.158 15.5 99 -0.9 103920 68
2001-12-14 09:29 51°13.291 2°38.294 15.5 100 -0.7 103910 70
2001-12-14 09:30 51°13.483 2°38.429 15.4 103 -0.6 103900 68
2001-12-14 09:31 51°13.677 2°38.569 16.1 103 -0.5 103920 69
2001-12-14 09:32 51°13.863 2°38.704 14.5 100 -0.6 103920 65
2001-12-14 09:33 51°14.052 2°38.844 16 94 -0.6 103920 66
2001-12-14 09:34 51°14.243 2°38.987 16 99 -0.5 103920 69
2001-12-14 09:35 51°14.433 2°39.123 16.5 102 -0.4 103910 68
2001-12-14 09:36 51°14.628 2°39.242 14.3 102 -0.4 103920 78
2001-12-14 09:37 51°14.828 2°39.313 11.8 90 -0.6 103930 78
2001-12-14 09:38 51°15.03 2°39.405 16.1 105 -0.7 103920 76
2001-12-14 09:39 51°15.205 2°39.564 15.3 107 -0.8 103930 75
2001-12-14 09:40 51°15.385 2°39.724 17.4 100 -0.7 103930 73
2001-12-14 09:41 51°15.567 2°39.888 14.2 99 -0.5 103910 71
2001-12-14 09:42 51°15.659 2°39.978 12.1 106 -0.5 103940 67
2001-12-14 09:43 51°15.687 2°40.015 9.8 98 -0.6 103950 64
2001-12-14 09:44 51°15.696 2°40.018 11.3 104 -0.5 103940 68
2001-12-14 09:45 51°15.697 2°40.006 8.6 89 -0.4 103950 68
2001-12-14 09:46 51°15.695 2°39.983 10.8 73 -0.4 103950 67
2001-12-14 09:47 51°15.69 2°39.951 10.4 53 -0.4 103940 65
2001-12-14 09:48 51°15.683 2°39.918 10.4 39 -0.4 103930 63
2001-12-14 09:49 51°15.677 2°39.885 9.3 33 -0.3 103940 66
2001-12-14 09:50 51°15.672 2°39.852 10.7 41 -0.3 103930 63
2001-12-14 09:51 51°15.67 2°39.822 10.6 42 -0.3 103940 65
2001-12-14 09:52 51°15.668 2°39.795 10.1 57 -0.2 103940 68
2001-12-14 09:53 51°15.703 2°39.87 13.9 141 -0.1 103930 71
2001-12-14 09:54 51°15.689 2°40.119 18.8 140 -0.2 103930 68
2001-12-14 09:55 51°15.668 2°40.463 17.5 143 -0.3 103920 68
2001-12-14 09:56 51°15.641 2°40.814 17.7 145 -0.3 103930 67
2001-12-14 09:57 51°15.613 2°41.175 18.1 141 -0.3 103930 67
2001-12-14 09:58 51°15.588 2°41.529 19.5 148 -0.5 103940 65
2001-12-14 09:59 51°15.562 2°41.891 16.6 144 -0.5 103930 68
2001-12-14 10:00 51°15.531 2°42.253 17.4 148 -0.5 103930 69
2001-12-14 10:01 51°15.497 2°42.614 17.2 148 -0.5 103920 67
2001-12-14 10:02 51°15.472 2°42.983 17 139 -0.6 103930 66
2001-12-14 10:03 51°15.477 2°43.346 15.3 134 -0.7 103940 68
2001-12-14 10:04 51°15.497 2°43.704 19.2 136 -0.6 103950 70
2001-12-14 10:05 51°15.524 2°44.063 17.4 131 -0.7 103940 70
2001-12-14 10:06 51°15.559 2°44.424 19.1 132 -0.6 103950 72
2001-12-14 10:07 51°15.604 2°44.789 19.5 131 -0.7 103950 67
2001-12-14 10:08 51°15.65 2°45.15 18 132 -0.8 103950 68
2001-12-14 10:09 51°15.698 2°45.51 17.7 138 -0.8 103940 68
2001-12-14 10:10 51°15.747 2°45.867 18.3 132 -0.8 103940 66
2001-12-14 10:11 51°15.799 2°46.237 18.6 133 -0.8 103940 68
2001-12-14 10:12 51°15.849 2°46.596 19.5 136 -0.8 103950 65
2001-12-14 10:13 51°15.898 2°46.963 20.1 136 -0.9 103930 68
2001-12-14 10:14 51°15.949 2°47.338 17.2 133 -0.9 103940 69
2001-12-14 10:15 51°15.999 2°47.7 19.1 134 -0.9 103950 68
2001-12-14 10:16 51°16.05 2°48.069 16.3 136 -0.9 103950 69
2001-12-14 10:17 51°16.098 2°48.443 17.7 131 -0.9 103950 68
2001-12-14 10:18 51°16.143 2°48.812 18.5 140 -0.7 103960 72
2001-12-14 10:19 51°16.187 2°49.175 16.8 134 -0.8 103930 68
2001-12-14 10:20 51°16.23 2°49.544 17.5 140 -0.8 103970 72
2001-12-14 10:21 51°16.278 2°49.919 17.1 139 -0.9 103950 69
2001-12-14 10:22 51°16.322 2°50.29 16.4 135 -1 103950 67
2001-12-14 10:23 51°16.375 2°50.651 16.4 132 -1 103950 69
2001-12-14 10:24 51°16.462 2°51.005 17.7 125 -0.9 103950 69
2001-12-14 10:25 51°16.61 2°51.301 15.1 114 -0.9 103940 67
2001-12-14 10:26 51°16.773 2°51.569 15 124 -1 103960 69
2001-12-14 10:27 51°16.944 2°51.822 14.2 112 -1 103950 68
2001-12-14 10:28 51°17.133 2°52.026 12 108 -1 103950 70
2001-12-14 10:29 51°17.345 2°52.173 11.1 99 -0.9 103950 70
2001-12-14 10:30 51°17.56 2°52.165 11.2 72 -0.9 103940 67
2001-12-14 10:31 51°17.75 2°52.047 9.9 66 -0.9 103970 69
2001-12-14 10:32 51°17.872 2°51.96 7.6 44 -0.7 103980 71
2001-12-14 10:33 51°17.97 2°51.823 5.4 26 -0.7 103980 68
2001-12-14 10:34 51°18.083 2°51.642 7.3 48 -0.5 103970 70
2001-12-14 10:35 51°18.208 2°51.409 6.5 33 -0.4 103980 69
2001-12-14 10:36 51°18.314 2°51.137 6.6 43 -0.4 103990 68
2001-12-14 10:37 51°18.417 2°50.991 6.6 31 -0.4 103970 66
2001-12-14 10:38 51°18.482 2°50.916 7.7 43 -0.3 103980 69
2001-12-14 10:39 51°18.532 2°50.883 8.5 40 -0.3 103970 65
2001-12-14 10:40 51°18.564 2°50.876 8.6 317 -0.3 103970 68
2001-12-14 10:41 51°18.568 2°50.885 8.3 31 -0.3 103970 65
2001-12-14 10:42 51°18.572 2°50.895 8.4 9 -0.2 103970 67
2001-12-14 10:43 51°18.578 2°50.904 8.7 30   103960 71
2001-12-14 10:44 51°18.583 2°50.912 8.3 34   103970 63
2001-12-14 10:45 51°18.587 2°50.921 8.6 33   103970 68
2001-12-14 10:46 51°18.59 2°50.93 10.3 30   103960 67
2001-12-14 10:47 51°18.604 2°50.936 10.3 64 -0.1 103970 63
2001-12-14 10:48 51°18.671 2°51.08 16.1 136 -0.1 103970 62
2001-12-14 10:49 51°18.727 2°51.427 18.5 142 -0.1 103970 61
2001-12-14 10:50 51°18.802 2°51.802 17.3 135 -0.1 103970 63
2001-12-14 10:51 51°18.882 2°52.161 18.5 139   103960 66
2001-12-14 10:52 51°18.959 2°52.519 17.9 133 0.1 103960 65
2001-12-14 10:53 51°19.039 2°52.894 16.1 134   103960 63
2001-12-14 10:54 51°19.117 2°53.251 18.1 131   103950 63
2001-12-14 10:55 51°19.197 2°53.62 16.8 136 0.1 103960 66
2001-12-14 10:56 51°19.277 2°53.976 16.9 129 0.1 103950 63
2001-12-14 10:57 51°19.355 2°54.341 16 136 0.1 103940 63
2001-12-14 10:58 51°19.437 2°54.711 19.2 136 0.1 103940 60
2001-12-14 10:59 51°19.516 2°55.07 17.5 136 0.1 103950 60
2001-12-14 11:00 51°19.598 2°55.436 17.5 137 0.1 103950 59
2001-12-14 11:01 51°19.68 2°55.804 17.9 135 0.1 103960 63
2001-12-14 11:02 51°19.763 2°56.175 14.3 131 0.1 103960 62
2001-12-14 11:03 51°19.848 2°56.555 17.3 131 0.2 103960 63
2001-12-14 11:04 51°19.929 2°56.929 18 129 0.2 103950 61
2001-12-14 11:05 51°20.013 2°57.302 16.6 132 0.3 103960 68
2001-12-14 11:06 51°20.098 2°57.674 17.9 136 0.1 103950 59
2001-12-14 11:07 51°20.181 2°58.046 17.7 132 0.1 103960 60
2001-12-14 11:08 51°20.265 2°58.419 17.3 135 0.1 103970 59
2001-12-14 11:09 51°20.349 2°58.794 18.6 136 0.1 103970 60
2001-12-14 11:10 51°20.434 2°59.171 17.8 131 0.1 103960 58
2001-12-14 11:11 51°20.519 2°59.548 18 135 0.1 103960 64
2001-12-14 11:12 51°20.605 2°59.926 17.5 127 0.1 103960 62
2001-12-14 11:13 51°20.691 3°0.306 17.4 131 0.2 103960 62
2001-12-14 11:14 51°20.78 3°0.687 17.4 131 0.2 103950 61
2001-12-14 11:15 51°20.865 3°1.063 17.2 129 0.3 103940 63
2001-12-14 11:16 51°20.952 3°1.445 19.6 134 0.2 103940 58
2001-12-14 11:17 51°21.041 3°1.838 17 132 0.2 103950 61
2001-12-14 11:18 51°21.128 3°2.216 16.9 131 0.2 103940 62
2001-12-14 11:19 51°21.218 3°2.611 17.4 129 0.2 103940 61
2001-12-14 11:20 51°21.306 3°2.995 17.5 130 0.2 103940 62
2001-12-14 11:21 51°21.395 3°3.384 18 135 0.2 103940 64
2001-12-14 11:22 51°21.487 3°3.777 17.5 129 0.2 103950 64
2001-12-14 11:23 51°21.576 3°4.164 18.3 135 0.2 103940 65
2001-12-14 11:24 51°21.662 3°4.542 18.5 130 0.3 103950 64
2001-12-14 11:25 51°21.752 3°4.928 16.9 133 0.3 103960 68
2001-12-14 11:26 51°21.829 3°5.329 18.4 131 0.2 103950 61
2001-12-14 11:27 51°21.913 3°5.723 17.1 138 0.3 103950 67
2001-12-14 11:28 51°22.01 3°6.104 15.9 124 0.2 103960 63
2001-12-14 11:29 51°22.215 3°6.325 15 97 0.2 103930 64
2001-12-14 11:30 51°22.441 3°6.465 13.5 102 0.2 103930 67
2001-12-14 11:31 51°22.675 3°6.602 13.1 111 0.3 103940 71
2001-12-14 11:32 51°22.908 3°6.72 14.4 102 0.2 103940 69
2001-12-14 11:33 51°23.139 3°6.825 14 105 0.2 103940 69
2001-12-14 11:34 51°23.368 3°6.934 13.2 108 0.2 103940 65
2001-12-14 11:35 51°23.596 3°7.04 10.9 97 0.1 103940 66
2001-12-14 11:36 51°23.819 3°7.148 13.1 102 0.2 103940 68
2001-12-14 11:37 51°24.045 3°7.266 14.4 101 0.2 103940 61
2001-12-14 11:38 51°24.265 3°7.383 13.6 103 0.2 103950 67
2001-12-14 11:39 51°24.483 3°7.463 12.3 95 0.1 103940 61
2001-12-14 11:40 51°24.71 3°7.54 11.5 93 0.1 103940 63
2001-12-14 11:41 51°24.934 3°7.619 10.9 94 0.1 103940 64
2001-12-14 11:42 51°25.157 3°7.7 12 102 0.1 103940 61
2001-12-14 11:43 51°25.383 3°7.792 14.7 103 0.1 103940 64
2001-12-14 11:44 51°25.611 3°7.877 11.5 99 0.1 103940 65
2001-12-14 11:45 51°25.835 3°7.977 12.1 102 0.2 103950 67
2001-12-14 11:46 51°26.063 3°8.104 12.2 102 0.2 103940 67
2001-12-14 11:47 51°26.27 3°8.229 10.9 112 0.2 103940 68
2001-12-14 11:48 51°26.375 3°8.374 10.8 113 0.2 103960 63
2001-12-14 11:49 51°26.43 3°8.466 7.4 96 0.1 103960 65
2001-12-14 11:50 51°26.448 3°8.495 8.6 72 0.2 103960 63
2001-12-14 11:51 51°26.46 3°8.51 8 57 0.2 103960 63
2001-12-14 11:52 51°26.47 3°8.523 7.1 43 0.2 103960 67
2001-12-14 11:53 51°26.478 3°8.535 7.4 44 0.2 103960 68
2001-12-14 11:54 51°26.486 3°8.545 7.1 43 0.4 103960 71
2001-12-14 11:55 51°26.493 3°8.556 6.2 33 0.5 103950 70
2001-12-14 11:56 51°26.5 3°8.568 6.8 20 0.4 103950 69
2001-12-14 11:57 51°26.507 3°8.578 7 43 0.3 103950 67
2001-12-14 11:58 51°26.516 3°8.589 7.3 22 0.4 103950 71
2001-12-14 11:59 51°26.519 3°8.517 3.9 246 0.3 103970 63
2001-12-14 12:00 51°26.436 3°8.584 10.5 197 0.4 103970 65
2001-12-14 12:01 51°26.272 3°8.668 9.1 194 0.3 103970 65
2001-12-14 12:02 51°26.077 3°8.714 9.8 208 0.3 103970 67
2001-12-14 12:03 51°25.9 3°8.817 11 187 0.4 103960 65
2001-12-14 12:04 51°25.77 3°8.927 9.8 205 0.4 103970 68
2001-12-14 12:05 51°25.675 3°8.957 7 194 0.4 103980 66
2001-12-14 12:06 51°25.598 3°8.985 8.3 208 0.4 103980 67
2001-12-14 12:07 51°25.555 3°9.027 8.2 205 0.3 103970 65
2001-12-14 12:08 51°25.528 3°9.068 6.5 200 0.3 103980 67
2001-12-14 12:09 51°25.454 3°9.139 12.2 199 0.3 103960 66
2001-12-14 12:10 51°25.294 3°9.346 13.4 179 0.3 103960 66
2001-12-14 12:11 51°25.133 3°9.606 14.6 170 0.3 103910 65
2001-12-14 12:12 51°24.966 3°9.87 13.8 175 0.3 103910 67
2001-12-14 12:13 51°24.799 3°10.135 15.2 176 0.2 103910 66
2001-12-14 12:14 51°24.632 3°10.402 13.7 171 0.3 103910 65
2001-12-14 12:15 51°24.463 3°10.669 14.6 183 0.3 103910 64
2001-12-14 12:16 51°24.277 3°10.91 13.7 187 0.3 103900 64
2001-12-14 12:17 51°24.066 3°11.07 10.1 194 0.2 103910 63
2001-12-14 12:18 51°23.85 3°11.193 11.6 191 0.3 103910 68
2001-12-14 12:19 51°23.674 3°11.314 9.8 208 0.3 103940 62
2001-12-14 12:20 51°23.588 3°11.409 10.9 195 0.4 103950 67
2001-12-14 12:21 51°23.548 3°11.501 9.8 195 0.4 103940 68
2001-12-14 12:22 51°23.531 3°11.58 9 197 0.4 103940 66
2001-12-14 12:23 51°23.522 3°11.642 9.9 186 0.4 103940 67
2001-12-14 12:24 51°23.518 3°11.692 9.4 201 0.4 103950 63
2001-12-14 12:25 51°23.516 3°11.733 9.6 203 0.4 103950 67
2001-12-14 12:26 51°23.502 3°11.774 5.9 226 0.5 103950 66
2001-12-14 12:27 51°23.355 3°11.763 5.6 208 0.4 103940 67
2001-12-14 12:28 51°23.144 3°11.748 11.2 193 0.4 103930 68
2001-12-14 12:29 51°22.971 3°11.979 14.1 174 0.4 103910 67
2001-12-14 12:30 51°22.827 3°12.279 15 177 0.4 103900 68
2001-12-14 12:31 51°22.687 3°12.603 16.4 169 0.4 103900 69
2001-12-14 12:32 51°22.592 3°12.966 15.1 151 0.5 103900 67
2001-12-14 12:33 51°22.609 3°13.226 12.8 123 0.5 103950 67
2001-12-14 12:34 51°22.609 3°13.277 8.5 65 0.5 103930 68
2001-12-14 12:35 51°22.637 3°13.27 6.7 352 0.5 103940 67
2001-12-14 12:36 51°22.647 3°13.275 8.9 9 0.4 103950 68
2001-12-14 12:37 51°22.661 3°13.266 6.1 342 0.3 103940 64
2001-12-14 12:38 51°22.658 3°13.254 6.2 311 0.3 103950 65
2001-12-14 12:39 51°22.645 3°13.262 7.5 290 0.5 103970 66
2001-12-14 12:40 51°22.632 3°13.28 6.8 264 0.5 103970 67
2001-12-14 12:41 51°22.618 3°13.301 7.3 279 0.5 103960 71
2001-12-14 12:42 51°22.6 3°13.296 7.4 300 0.6 103960 72
2001-12-14 12:43 51°22.587 3°13.284 6.6 302 0.4 103960 64
2001-12-14 12:44 51°22.575 3°13.284 7.8 296 0.5 103970 71
2001-12-14 12:45 51°22.565 3°13.289 9.4 294 0.4 103960 66
2001-12-14 12:46 51°22.552 3°13.248 4.7   0.4 103950 67
2001-12-14 12:47 51°22.51 3°13.01 2.3 358 0.5 103960 69
2001-12-14 12:48 51°22.448 3°12.708 1.1 41 0.6 103960 69
2001-12-14 12:49 51°22.386 3°12.403 2.2 19 0.7 103950 70
2001-12-14 12:50 51°22.327 3°12.096 1.7 346 0.7 103950 68
2001-12-14 12:51 51°22.266 3°11.786 1.8 21 0.6 103950 67
2001-12-14 12:52 51°22.207 3°11.476 1 6 0.6 103940 68
2001-12-14 12:53 51°22.123 3°11.177 0.9 206 0.7 103950 68
2001-12-14 12:54 51°22.015 3°10.902 2.1 270 0.8 103950 68
2001-12-14 12:55 51°21.905 3°10.63 3 299 0.7 103940 65
2001-12-14 12:56 51°21.799 3°10.354 1.4 277 0.7 103940 63
2001-12-14 12:57 51°21.696 3°10.076 2.1 253 0.7 103940 64
2001-12-14 12:58 51°21.587 3°9.792 0.7 283 0.8 103940 65
2001-12-14 12:59 51°21.482 3°9.509 0.4 233 0.8 103940 64
2001-12-14 13:00 51°21.373 3°9.22 2.4 292 0.8 103940 65
2001-12-14 13:01 51°21.267 3°8.935 1.2 281 0.9 103940 65
2001-12-14 13:02 51°21.16 3°8.653 2.2 279 1 103930 66
2001-12-14 13:03 51°21.055 3°8.371 1.9 296 1.1 103930 68
2001-12-14 13:04 51°20.948 3°8.089 2.5 288 1.1 103930 64
2001-12-14 13:05 51°20.842 3°7.811 2.1 298 1.1 103940 64
2001-12-14 13:06 51°20.735 3°7.529 1.7 289 1.1 103930 63
2001-12-14 13:07 51°20.628 3°7.248 1.6 285 1.1 103930 65
2001-12-14 13:08 51°20.519 3°6.964 2.2 302 1.2 103930 67
2001-12-14 13:09 51°20.409 3°6.677 2.2 295 1.1 103930 62
2001-12-14 13:10 51°20.298 3°6.391 1.9 273 1.1 103930 63
2001-12-14 13:11 51°20.186 3°6.108 1.1 239 1.2 103930 67
2001-12-14 13:12 51°20.076 3°5.824 2.6 287 1.3 103930 66
2001-12-14 13:13 51°19.966 3°5.541 1.8 245 1.4 103930 67
2001-12-14 13:14 51°19.856 3°5.257 3.1 290 1.3 103940 63
2001-12-14 13:15 51°19.745 3°4.973 1 240 1.1 103930 61
2001-12-14 13:16 51°19.637 3°4.686 3.1 293 1.3 103930 65
2001-12-14 13:17 51°19.524 3°4.406 3.1 273 1.2 103930 62
2001-12-14 13:18 51°19.415 3°4.118 2.2 266 1.2 103930 66
2001-12-14 13:19 51°19.308 3°3.836 3.7 293 1.2 103930 63
2001-12-14 13:20 51°19.197 3°3.554 1.7 270 1.2 103930 63
2001-12-14 13:21 51°19.089 3°3.267 1.1 212 1.2 103930 63
2001-12-14 13:22 51°18.98 3°2.98 1.1 289 1.4 103930 67
2001-12-14 13:23 51°18.871 3°2.696 1.3 214 1.5 103930 68
2001-12-14 13:24 51°18.763 3°2.417 1.3 250 1.5 103930 67
2001-12-14 13:25 51°18.656 3°2.14 0.6 236 1.5 103930 65
2001-12-14 13:26 51°18.546 3°1.866 2 253 1.5 103930 65
2001-12-14 13:27 51°18.436 3°1.594 2.4 259 1.4 103930 67
2001-12-14 13:28 51°18.326 3°1.318 1.2 249 1.4 103930 66
2001-12-14 13:29 51°18.216 3°1.045 2.4 275 1.4 103920 65
2001-12-14 13:30 51°18.106 3°0.776 1.8 246 1.4 103930 67
2001-12-14 13:31 51°17.999 3°0.504 2.6 250 1.4 103930 65
2001-12-14 13:32 51°17.887 3°0.232 0.5 228 1.4 103920 67
2001-12-14 13:33 51°17.778 2°59.955 1.2 239 1.5 103920 69
2001-12-14 13:34 51°17.665 2°59.679 3.6 256 1.6 103930 67
2001-12-14 13:35 51°17.568 2°59.389 1.6 301 1.5 103920 62
2001-12-14 13:36 51°17.488 2°59.086 2.6 298 1.5 103920 63
2001-12-14 13:37 51°17.402 2°58.785 2.1 262 1.5 103920 64
2001-12-14 13:38 51°17.315 2°58.48 1.6 274 1.6 103920 63
2001-12-14 13:39 51°17.226 2°58.176 2.1 284 1.7 103920 61
2001-12-14 13:40 51°17.139 2°57.868 1.1 242 1.6 103920 60
2001-12-14 13:41 51°17.055 2°57.565 0.8 269 1.6 103920 59
2001-12-14 13:42 51°16.967 2°57.266 2.8 281 1.6 103910 60
2001-12-14 13:43 51°16.879 2°56.96 2.7 266 1.5 103910 61
2001-12-14 13:44 51°16.792 2°56.651 1.5 251 1.5 103910 61
2001-12-14 13:45 51°16.715 2°56.341 1.1 252 1.5 103910 62
2001-12-14 13:46 51°16.637 2°56.031 2.3 278 1.6 103910 64
2001-12-14 13:47 51°16.558 2°55.717 0.7 169 1.7 103910 66
2001-12-14 13:48 51°16.478 2°55.404 4.4 301 1.8 103910 65
2001-12-14 13:49 51°16.397 2°55.089 2.2 319 1.9 103910 66
2001-12-14 13:50 51°16.332 2°54.763 2.4 286 1.9 103910 66
2001-12-14 13:51 51°16.269 2°54.472 3.5 293 1.9 103920 64
2001-12-14 13:52 51°16.225 2°54.272 5.5 329 2 103910 66
2001-12-14 13:53 51°16.222 2°54.186 8.4 354 2.1 103900 66
2001-12-14 13:54 51°16.229 2°54.183 8.9 11 1.9 103880 64
2001-12-14 13:55 51°16.237 2°54.18 9.6 21 1.9 103880 69
2001-12-14 13:56 51°16.247 2°54.176 10.2 25 1.8 103890 63
2001-12-14 13:57 51°16.258 2°54.173 8.5 38 1.8 103880 59
2001-12-14 13:58 51°16.269 2°54.169 10.1 45 1.8 103880 61
2001-12-14 13:59 51°16.279 2°54.165 8.3 40 1.7 103880 60
2001-12-14 14:00 51°16.288 2°54.163 9.2 41 1.8 103880 61
2001-12-14 14:01 51°16.295 2°54.159 9.6 34 1.8 103890 66
2001-12-14 14:02 51°16.3 2°54.158 8.1 22 1.9 103880 67
2001-12-14 14:03 51°16.306 2°54.156 9.5 41 2 103880 70
2001-12-14 14:04 51°16.323 2°54.13 7.1 11 1.8 103870 63
2001-12-14 14:05 51°16.308 2°54.063 6.8 251 1.7 103900 62
2001-12-14 14:06 51°16.178 2°54.098 13.1 199 1.8 103900 69
2001-12-14 14:07 51°15.977 2°54.213 12.1 197 1.8 103900 61
2001-12-14 14:08 51°15.77 2°54.323 14.7 196 1.8 103880 59
2001-12-14 14:09 51°15.558 2°54.407 14 190 1.8 103890 60
2001-12-14 14:10 51°15.345 2°54.508 15.3 194 1.7 103880 58
2001-12-14 14:11 51°15.138 2°54.611 13.6 197 1.6 103890 55
2001-12-14 14:12 51°14.932 2°54.718 12.4 192 1.5 103890 56
2001-12-14 14:13 51°14.724 2°54.826 12.2 190 1.5 103890 59
2001-12-14 14:14 51°14.531 2°54.927 12.6 192 1.4 103900 58
2001-12-14 14:15 51°14.357 2°55.085 12.5 171 1.3 103890 59
2001-12-14 14:16 51°14.246 2°55.277 11.3 173 1.1 103870 60
2001-12-14 14:17 51°14.157 2°55.377 9.6 197 0.9 103900 57
2001-12-14 14:18 51°14.077 2°55.434 6.7 185 0.8 103900 59
2001-12-14 14:19 51°14.006 2°55.489 7.2 183 0.7 103900 59
2001-12-14 14:20 51°13.937 2°55.539 6.4 199 0.7 103900 59
2001-12-14 14:21 51°13.872 2°55.587 4.3 189 0.7 103890 61
2001-12-14 14:22 51°13.811 2°55.634 6 182 0.7 103900 60
2001-12-14 14:23 51°13.76 2°55.701 4.1 191 0.6 103880 60
2001-12-14 14:25 51°13.708 2°55.811 7.8 159 0.6 103890 61
2001-12-14 14:26 51°13.693 2°55.874 4.4 157 0.5 103880 61
2001-12-14 14:27 51°13.684 2°55.913 5 153 0.5 103880 62
2001-12-14 14:28 51°13.684 2°55.908 1.8 191 0.5 103890 62
2001-12-14 14:29 51°13.684 2°55.903 3.3 202 0.4 103880 62